createdAt,value
2017-09-04T00:01:03.403Z,0
2017-09-04T00:02:24.903Z,0
2017-09-04T00:03:46.731Z,0
2017-09-04T00:05:08.894Z,0
2017-09-04T00:06:30.694Z,0
2017-09-04T00:07:53.094Z,0
2017-09-04T00:09:14.600Z,0
2017-09-04T00:10:36.014Z,0
2017-09-04T00:11:58.474Z,0
2017-09-04T00:13:20.650Z,0
2017-09-04T00:14:42.143Z,0
2017-09-04T00:16:03.973Z,0
2017-09-04T00:17:25.815Z,0
2017-09-04T00:18:47.974Z,0
2017-09-04T00:20:09.801Z,0
2017-09-04T00:21:31.953Z,0
2017-09-04T00:22:53.484Z,0
2017-09-04T00:24:15.983Z,0
2017-09-04T00:25:37.835Z,0
2017-09-04T00:26:59.333Z,0
2017-09-04T00:28:21.585Z,0
2017-09-04T00:29:44.011Z,0
2017-09-04T00:31:05.830Z,0
2017-09-04T00:32:27.980Z,0
2017-09-04T00:33:49.905Z,0
2017-09-04T00:35:12.408Z,0
2017-09-04T00:36:34.554Z,0
2017-09-04T00:37:57.013Z,0
2017-09-04T00:39:18.894Z,0
2017-09-04T00:40:41.595Z,0
2017-09-04T00:42:03.751Z,0
2017-09-04T00:43:26.263Z,0
2017-09-04T00:44:48.404Z,0
2017-09-04T00:46:10.795Z,0
2017-09-04T00:47:33.298Z,0
2017-09-04T00:48:55.439Z,0
2017-09-04T00:50:17.572Z,0
2017-09-04T00:51:40.095Z,0
2017-09-04T00:53:02.245Z,0
2017-09-04T00:54:24.073Z,0
2017-09-04T00:55:46.213Z,0
2017-09-04T00:57:08.773Z,0
2017-09-04T00:58:31.182Z,0
2017-09-04T00:59:52.684Z,0
2017-09-04T01:01:15.166Z,0
2017-09-04T01:02:38.104Z,0
2017-09-04T01:03:59.917Z,0
2017-09-04T01:05:22.074Z,0
2017-09-04T01:06:44.390Z,0
2017-09-04T01:08:06.892Z,0
2017-09-04T01:09:28.743Z,0
2017-09-04T01:10:51.049Z,0
2017-09-04T01:12:13.553Z,0
2017-09-04T01:13:35.024Z,0
2017-09-04T01:14:57.172Z,0
2017-09-04T01:16:19.313Z,0
2017-09-04T01:17:41.464Z,0
2017-09-04T01:19:03.617Z,0
2017-09-04T01:20:25.204Z,0
2017-09-04T01:21:47.352Z,0
2017-09-04T01:23:09.291Z,0
2017-09-04T01:24:32.001Z,0
2017-09-04T01:25:54.203Z,0
2017-09-04T01:27:16.079Z,0
2017-09-04T01:28:37.264Z,0
2017-09-04T01:29:59.797Z,0
2017-09-04T01:31:21.353Z,0
2017-09-04T01:32:43.493Z,0
2017-09-04T01:34:05.978Z,0
2017-09-04T01:35:27.840Z,0
2017-09-04T01:36:49.976Z,0
2017-09-04T01:38:12.145Z,0
2017-09-04T01:39:33.663Z,0
2017-09-04T01:40:56.113Z,0
2017-09-04T01:42:18.640Z,0
2017-09-04T01:43:39.809Z,0
2017-09-04T01:45:01.323Z,0
2017-09-04T01:46:23.182Z,0
2017-09-04T01:47:45.024Z,0
2017-09-04T01:49:06.878Z,0
2017-09-04T01:50:28.434Z,0
2017-09-04T01:51:51.192Z,0
2017-09-04T01:53:13.313Z,0
2017-09-04T01:54:35.541Z,0
2017-09-04T01:55:57.703Z,0
2017-09-04T01:57:19.274Z,0
2017-09-04T01:58:40.143Z,0
2017-09-04T02:00:01.643Z,0
2017-09-04T02:01:23.153Z,0
2017-09-04T02:02:45.354Z,0
2017-09-04T02:04:07.646Z,0
2017-09-04T02:05:29.783Z,0
2017-09-04T02:06:52.031Z,0
2017-09-04T02:08:14.833Z,0
2017-09-04T02:09:36.684Z,0
2017-09-04T02:10:58.513Z,0
2017-09-04T02:12:20.691Z,0
2017-09-04T02:13:42.702Z,0
2017-09-04T02:15:04.193Z,0
2017-09-04T02:16:26.645Z,0
2017-09-04T02:17:48.473Z,0
2017-09-04T02:19:10.955Z,0
2017-09-04T02:20:33.094Z,0
2017-09-04T02:21:55.563Z,0
2017-09-04T02:23:17.423Z,0
2017-09-04T02:24:39.544Z,0
2017-09-04T02:26:01.705Z,0
2017-09-04T02:27:23.213Z,0
2017-09-04T02:28:45.038Z,0
2017-09-04T02:30:06.783Z,0
2017-09-04T02:31:28.274Z,0
2017-09-04T02:32:49.776Z,0
2017-09-04T02:34:11.593Z,0
2017-09-04T02:35:34.053Z,0
2017-09-04T02:36:55.228Z,0
2017-09-04T02:38:17.698Z,0
2017-09-04T02:39:38.883Z,0
2017-09-04T02:41:00.731Z,0
2017-09-04T02:42:23.372Z,0
2017-09-04T02:43:44.876Z,0
2017-09-04T02:45:07.059Z,0
2017-09-04T02:46:29.499Z,0
2017-09-04T02:47:51.402Z,0
2017-09-04T02:49:12.584Z,0
2017-09-04T02:50:34.084Z,0
2017-09-04T02:51:55.614Z,0
2017-09-04T02:53:18.133Z,0
2017-09-04T02:54:39.951Z,0
2017-09-04T02:56:02.095Z,0
2017-09-04T02:57:24.671Z,0
2017-09-04T02:58:46.496Z,0
2017-09-04T03:00:08.343Z,0
2017-09-04T03:01:30.881Z,0
2017-09-04T03:02:53.293Z,0
2017-09-04T03:04:15.744Z,0
2017-09-04T03:05:37.925Z,0
2017-09-04T03:07:00.115Z,0
2017-09-04T03:08:22.432Z,0
2017-09-04T03:09:44.594Z,0
2017-09-04T03:11:06.744Z,0
2017-09-04T03:12:28.572Z,0
2017-09-04T03:13:50.621Z,0
2017-09-04T03:15:13.083Z,0
2017-09-04T03:16:34.593Z,0
2017-09-04T03:17:56.102Z,0
2017-09-04T03:19:18.503Z,0
2017-09-04T03:20:40.631Z,0
2017-09-04T03:22:02.802Z,0
2017-09-04T03:23:24.636Z,0
2017-09-04T03:24:46.802Z,0
2017-09-04T03:26:08.289Z,0
2017-09-04T03:27:30.435Z,0
2017-09-04T03:28:52.652Z,0
2017-09-04T03:30:15.100Z,0
2017-09-04T03:31:37.350Z,0
2017-09-04T03:32:58.213Z,0
2017-09-04T03:34:20.673Z,0
2017-09-04T03:35:42.454Z,0
2017-09-04T03:37:04.292Z,0
2017-09-04T03:38:26.122Z,0
2017-09-04T03:39:47.953Z,0
2017-09-04T03:41:10.139Z,0
2017-09-04T03:42:31.656Z,0
2017-09-04T03:43:53.793Z,0
2017-09-04T03:45:15.932Z,0
2017-09-04T03:46:38.516Z,0
2017-09-04T03:48:00.012Z,0
2017-09-04T03:49:22.153Z,0
2017-09-04T03:50:43.343Z,0
2017-09-04T03:52:05.463Z,0
2017-09-04T03:53:27.323Z,0
2017-09-04T03:54:48.875Z,0
2017-09-04T03:56:11.062Z,0
2017-09-04T03:57:33.371Z,0
2017-09-04T03:58:55.424Z,0
2017-09-04T04:00:17.563Z,0
2017-09-04T04:01:39.714Z,0
2017-09-04T04:03:01.853Z,0
2017-09-04T04:04:24.114Z,0
2017-09-04T04:05:46.276Z,0
2017-09-04T04:07:08.110Z,0
2017-09-04T04:08:30.603Z,0
2017-09-04T04:09:52.420Z,0
2017-09-04T04:11:14.880Z,0
2017-09-04T04:12:37.043Z,0
2017-09-04T04:13:59.151Z,0
2017-09-04T04:15:21.008Z,0
2017-09-04T04:16:42.813Z,0
2017-09-04T04:18:04.632Z,0
2017-09-04T04:19:27.082Z,0
2017-09-04T04:20:49.709Z,0
2017-09-04T04:22:11.862Z,0
2017-09-04T04:23:33.789Z,0
2017-09-04T04:24:55.849Z,0
2017-09-04T04:26:17.194Z,0
2017-09-04T04:27:39.464Z,0
2017-09-04T04:29:01.604Z,0
2017-09-04T04:30:23.795Z,0
2017-09-04T04:31:44.972Z,0
2017-09-04T04:33:07.115Z,5
2017-09-04T04:34:29.602Z,5
2017-09-04T04:35:52.186Z,5
2017-09-04T04:37:14.326Z,5
2017-09-04T04:38:36.153Z,10
2017-09-04T04:39:57.370Z,10
2017-09-04T04:41:20.204Z,10
2017-09-04T04:42:42.656Z,15
2017-09-04T04:44:04.490Z,15
2017-09-04T04:45:26.316Z,15
2017-09-04T04:46:49.152Z,20
2017-09-04T04:48:11.041Z,20
2017-09-04T04:49:33.512Z,25
2017-09-04T04:50:55.663Z,25
2017-09-04T04:52:17.852Z,30
2017-09-04T04:53:39.682Z,30
2017-09-04T04:55:01.544Z,30
2017-09-04T04:56:23.764Z,35
2017-09-04T04:57:45.885Z,35
2017-09-04T04:59:07.705Z,40
2017-09-04T05:00:30.183Z,40
2017-09-04T05:01:52.336Z,45
2017-09-04T05:03:14.335Z,45
2017-09-04T05:04:36.481Z,50
2017-09-04T05:05:57.733Z,50
2017-09-04T05:07:19.043Z,55
2017-09-04T05:08:41.590Z,55
2017-09-04T05:10:03.778Z,60
2017-09-04T05:11:26.244Z,60
2017-09-04T05:12:48.123Z,60
2017-09-04T05:14:10.953Z,60
2017-09-04T05:15:33.542Z,65
2017-09-04T05:16:55.363Z,70
2017-09-04T05:18:17.522Z,70
2017-09-04T05:19:40.027Z,75
2017-09-04T05:21:01.903Z,75
2017-09-04T05:22:23.791Z,80
2017-09-04T05:23:45.942Z,85
2017-09-04T05:25:07.703Z,85
2017-09-04T05:26:30.163Z,90
2017-09-04T05:27:52.003Z,95
2017-09-04T05:29:13.838Z,95
2017-09-04T05:30:36.759Z,100
2017-09-04T05:31:58.931Z,100
2017-09-04T05:33:21.131Z,105
2017-09-04T05:34:42.686Z,105
2017-09-04T05:36:05.534Z,110
2017-09-04T05:37:28.008Z,115
2017-09-04T05:38:49.839Z,120
2017-09-04T05:40:11.353Z,130
2017-09-04T05:41:33.513Z,125
2017-09-04T05:42:55.393Z,135
2017-09-04T05:44:17.633Z,165
2017-09-04T05:45:39.473Z,210
2017-09-04T05:47:01.994Z,220
2017-09-04T05:48:23.870Z,220
2017-09-04T05:49:45.699Z,220
2017-09-04T05:51:07.903Z,225
2017-09-04T05:52:30.281Z,225
2017-09-04T05:53:52.152Z,235
2017-09-04T05:55:14.313Z,225
2017-09-04T05:56:35.941Z,230
2017-09-04T05:57:58.771Z,230
2017-09-04T05:59:20.313Z,230
2017-09-04T06:00:42.194Z,230
2017-09-04T06:02:04.340Z,240
2017-09-04T06:03:25.839Z,240
2017-09-04T06:04:47.363Z,240
2017-09-04T06:06:09.213Z,245
2017-09-04T06:07:31.053Z,245
2017-09-04T06:08:53.853Z,250
2017-09-04T06:10:16.023Z,255
2017-09-04T06:11:38.173Z,255
2017-09-04T06:12:59.904Z,260
2017-09-04T06:14:21.770Z,260
2017-09-04T06:15:44.054Z,260
2017-09-04T06:17:06.204Z,260
2017-09-04T06:18:28.372Z,260
2017-09-04T06:19:50.503Z,265
2017-09-04T06:21:12.984Z,270
2017-09-04T06:22:35.357Z,270
2017-09-04T06:23:57.853Z,275
2017-09-04T06:25:20.293Z,280
2017-09-04T06:26:42.434Z,280
2017-09-04T06:28:04.592Z,285
2017-09-04T06:29:26.113Z,290
2017-09-04T06:30:48.438Z,290
2017-09-04T06:32:10.593Z,290
2017-09-04T06:33:32.119Z,295
2017-09-04T06:34:53.663Z,295
2017-09-04T06:36:15.446Z,300
2017-09-04T06:37:37.614Z,300
2017-09-04T06:38:59.765Z,305
2017-09-04T06:40:22.243Z,305
2017-09-04T06:41:44.376Z,310
2017-09-04T06:43:05.565Z,310
2017-09-04T06:44:27.094Z,315
2017-09-04T06:45:48.751Z,310
2017-09-04T06:47:10.953Z,315
2017-09-04T06:48:32.897Z,315
2017-09-04T06:49:54.873Z,320
2017-09-04T06:51:17.403Z,320
2017-09-04T06:52:39.614Z,320
2017-09-04T06:54:01.465Z,320
2017-09-04T06:55:23.294Z,325
2017-09-04T06:56:45.790Z,330
2017-09-04T06:58:08.044Z,330
2017-09-04T06:59:30.178Z,325
2017-09-04T07:00:52.342Z,325
2017-09-04T07:02:14.183Z,325
2017-09-04T07:03:36.946Z,330
2017-09-04T07:04:59.124Z,330
2017-09-04T07:06:20.682Z,330
2017-09-04T07:07:42.949Z,325
2017-09-04T07:09:05.124Z,330
2017-09-04T07:10:27.602Z,340
2017-09-04T07:11:49.458Z,340
2017-09-04T07:13:11.572Z,335
2017-09-04T07:14:34.094Z,335
2017-09-04T07:15:56.276Z,325
2017-09-04T07:17:18.217Z,320
2017-09-04T07:18:40.073Z,325
2017-09-04T07:20:03.483Z,320
2017-09-04T07:21:25.054Z,320
2017-09-04T07:22:47.181Z,320
2017-09-04T07:24:10.218Z,315
2017-09-04T07:25:32.652Z,315
2017-09-04T07:26:54.185Z,315
2017-09-04T07:28:16.022Z,320
2017-09-04T07:29:37.292Z,320
2017-09-04T07:30:59.169Z,315
2017-09-04T07:32:21.790Z,315
2017-09-04T07:33:43.993Z,310
2017-09-04T07:35:06.152Z,305
2017-09-04T07:36:27.786Z,305
2017-09-04T07:37:49.667Z,300
2017-09-04T07:39:11.887Z,300
2017-09-04T07:40:33.773Z,300
2017-09-04T07:41:56.293Z,295
2017-09-04T07:43:18.443Z,295
2017-09-04T07:44:40.281Z,285
2017-09-04T07:46:01.864Z,270
2017-09-04T07:47:24.079Z,245
2017-09-04T07:48:46.263Z,230
2017-09-04T07:50:08.492Z,220
2017-09-04T07:51:30.972Z,220
2017-09-04T07:52:53.713Z,220
2017-09-04T07:54:15.993Z,215
2017-09-04T07:55:37.828Z,215
2017-09-04T07:56:59.999Z,215
2017-09-04T07:58:22.851Z,215
2017-09-04T07:59:44.355Z,215
2017-09-04T08:01:06.211Z,215
2017-09-04T08:02:28.362Z,215
2017-09-04T08:03:49.946Z,210
2017-09-04T08:05:11.612Z,210
2017-09-04T08:06:33.893Z,210
2017-09-04T08:07:55.728Z,210
2017-09-04T08:09:18.280Z,210
2017-09-04T08:10:40.175Z,215
2017-09-04T08:12:02.080Z,210
2017-09-04T08:13:23.937Z,210
2017-09-04T08:14:45.839Z,210
2017-09-04T08:16:08.004Z,210
2017-09-04T08:17:29.840Z,210
2017-09-04T08:18:51.725Z,210
2017-09-04T08:20:13.862Z,210
2017-09-04T08:21:35.801Z,210
2017-09-04T08:22:57.952Z,210
2017-09-04T08:24:19.797Z,215
2017-09-04T08:25:41.888Z,210
2017-09-04T08:27:04.042Z,210
2017-09-04T08:28:25.871Z,210
2017-09-04T08:29:47.382Z,210
2017-09-04T08:31:09.202Z,210
2017-09-04T08:32:30.693Z,210
2017-09-04T08:33:52.602Z,210
2017-09-04T08:35:14.765Z,210
2017-09-04T08:36:37.664Z,210
2017-09-04T08:38:00.153Z,210
2017-09-04T08:39:22.665Z,210
2017-09-04T08:40:44.164Z,210
2017-09-04T08:42:06.367Z,210
2017-09-04T08:43:28.224Z,210
2017-09-04T08:44:50.042Z,210
2017-09-04T08:46:11.884Z,210
2017-09-04T08:47:33.375Z,210
2017-09-04T08:48:55.265Z,210
2017-09-04T08:50:17.746Z,210
2017-09-04T08:51:39.276Z,210
2017-09-04T08:53:01.132Z,210
2017-09-04T08:54:22.982Z,210
2017-09-04T08:55:44.192Z,205
2017-09-04T08:57:06.371Z,205
2017-09-04T08:58:28.853Z,205
2017-09-04T08:59:50.372Z,205
2017-09-04T09:01:12.212Z,205
2017-09-04T09:02:34.352Z,205
2017-09-04T09:03:56.493Z,205
2017-09-04T09:05:18.342Z,205
2017-09-04T09:06:40.925Z,205
2017-09-04T09:08:03.083Z,205
2017-09-04T09:09:25.242Z,205
2017-09-04T09:10:47.733Z,205
2017-09-04T09:12:10.323Z,205
2017-09-04T09:13:32.486Z,205
2017-09-04T09:14:55.975Z,205
2017-09-04T09:16:18.151Z,205
2017-09-04T09:17:39.737Z,210
2017-09-04T09:19:01.583Z,205
2017-09-04T09:20:24.096Z,205
2017-09-04T09:21:45.930Z,205
2017-09-04T09:23:07.925Z,205
2017-09-04T09:24:30.422Z,205
2017-09-04T09:25:52.609Z,205
2017-09-04T09:27:14.426Z,205
2017-09-04T09:28:36.946Z,205
2017-09-04T09:29:59.113Z,205
2017-09-04T09:31:22.022Z,205
2017-09-04T09:32:44.193Z,205
2017-09-04T09:34:05.733Z,205
2017-09-04T09:35:27.553Z,205
2017-09-04T09:36:50.055Z,205
2017-09-04T09:38:12.352Z,205
2017-09-04T09:39:34.594Z,205
2017-09-04T09:40:56.084Z,205
2017-09-04T09:42:18.704Z,205
2017-09-04T09:43:40.540Z,205
2017-09-04T09:45:02.715Z,205
2017-09-04T09:46:25.270Z,205
2017-09-04T09:47:47.045Z,200
2017-09-04T09:49:09.210Z,200
2017-09-04T09:50:30.705Z,200
2017-09-04T09:51:52.554Z,200
2017-09-04T09:53:14.304Z,200
2017-09-04T09:54:35.812Z,200
2017-09-04T09:55:57.652Z,200
2017-09-04T09:57:19.541Z,200
2017-09-04T09:58:41.986Z,205
2017-09-04T10:00:03.898Z,215
2017-09-04T10:01:25.401Z,210
2017-09-04T10:02:47.975Z,210
2017-09-04T10:04:10.573Z,210
2017-09-04T10:05:32.832Z,210
2017-09-04T10:06:55.123Z,210
2017-09-04T10:08:16.977Z,205
2017-09-04T10:09:39.502Z,205
2017-09-04T10:11:01.344Z,200
2017-09-04T10:12:23.306Z,200
2017-09-04T10:13:45.144Z,200
2017-09-04T10:15:07.563Z,200
2017-09-04T10:16:29.102Z,205
2017-09-04T10:17:50.936Z,205
2017-09-04T10:19:12.807Z,210
2017-09-04T10:20:34.898Z,210
2017-09-04T10:21:57.447Z,210
2017-09-04T10:23:19.606Z,215
2017-09-04T10:24:41.543Z,220
2017-09-04T10:26:03.842Z,220
2017-09-04T10:27:26.014Z,220
2017-09-04T10:28:48.182Z,225
2017-09-04T10:30:10.404Z,225
2017-09-04T10:31:32.970Z,230
2017-09-04T10:32:55.139Z,240
2017-09-04T10:34:17.303Z,250
2017-09-04T10:35:38.555Z,260
2017-09-04T10:37:00.914Z,250
2017-09-04T10:38:22.783Z,250
2017-09-04T10:39:44.982Z,250
2017-09-04T10:41:07.521Z,250
2017-09-04T10:42:29.933Z,250
2017-09-04T10:43:51.762Z,250
2017-09-04T10:45:14.234Z,250
2017-09-04T10:46:35.762Z,250
2017-09-04T10:47:57.848Z,230
2017-09-04T10:49:19.045Z,230
2017-09-04T10:50:41.200Z,230
2017-09-04T10:52:03.023Z,240
2017-09-04T10:53:24.809Z,235
2017-09-04T10:54:47.296Z,235
2017-09-04T10:56:08.814Z,235
2017-09-04T10:57:31.024Z,230
2017-09-04T10:58:53.543Z,225
2017-09-04T11:00:16.054Z,225
2017-09-04T11:01:37.894Z,225
2017-09-04T11:02:59.744Z,230
2017-09-04T11:04:21.935Z,220
2017-09-04T11:05:44.124Z,215
2017-09-04T11:07:06.634Z,205
2017-09-04T11:08:28.623Z,195
2017-09-04T11:09:51.133Z,195
2017-09-04T11:11:13.313Z,195
2017-09-04T11:12:35.563Z,205
2017-09-04T11:13:58.140Z,200
2017-09-04T11:15:19.911Z,195
2017-09-04T11:16:41.445Z,200
2017-09-04T11:18:03.283Z,200
2017-09-04T11:19:25.110Z,195
2017-09-04T11:20:47.585Z,190
2017-09-04T11:22:09.503Z,205
2017-09-04T11:23:31.010Z,195
2017-09-04T11:24:52.861Z,190
2017-09-04T11:26:15.384Z,200
2017-09-04T11:27:37.556Z,200
2017-09-04T11:28:59.603Z,200
2017-09-04T11:30:21.746Z,200
2017-09-04T11:31:44.216Z,200
2017-09-04T11:33:06.373Z,195
2017-09-04T11:34:28.236Z,195
2017-09-04T11:35:50.712Z,195
2017-09-04T11:37:13.135Z,195
2017-09-04T11:38:35.459Z,195
2017-09-04T11:39:57.282Z,190
2017-09-04T11:41:19.758Z,190
2017-09-04T11:42:41.957Z,190
2017-09-04T11:44:04.124Z,190
2017-09-04T11:45:26.044Z,190
2017-09-04T11:46:48.526Z,190
2017-09-04T11:48:10.744Z,190
2017-09-04T11:49:33.345Z,190
2017-09-04T11:50:55.497Z,190
2017-09-04T11:52:17.994Z,195
2017-09-04T11:53:40.562Z,195
2017-09-04T11:55:02.115Z,195
2017-09-04T11:56:24.583Z,195
2017-09-04T11:57:47.123Z,190
2017-09-04T11:59:09.965Z,190
2017-09-04T12:00:31.843Z,185
2017-09-04T12:01:53.717Z,190
2017-09-04T12:03:15.896Z,195
2017-09-04T12:04:38.445Z,205
2017-09-04T12:06:00.278Z,215
2017-09-04T12:07:22.464Z,210
2017-09-04T12:08:44.627Z,210
2017-09-04T12:10:07.187Z,200
2017-09-04T12:11:29.685Z,200
2017-09-04T12:12:51.545Z,200
2017-09-04T12:14:13.728Z,200
2017-09-04T12:15:36.558Z,195
2017-09-04T12:16:58.733Z,195
2017-09-04T12:18:20.644Z,190
2017-09-04T12:19:43.187Z,190
2017-09-04T12:21:05.994Z,190
2017-09-04T12:22:28.193Z,195
2017-09-04T12:23:50.389Z,190
2017-09-04T12:25:12.967Z,190
2017-09-04T12:26:34.721Z,195
2017-09-04T12:27:56.873Z,190
2017-09-04T12:29:18.789Z,190
2017-09-04T12:30:41.253Z,190
2017-09-04T12:32:04.036Z,185
2017-09-04T12:33:26.518Z,180
2017-09-04T12:34:48.693Z,180
2017-09-04T12:36:10.521Z,180
2017-09-04T12:37:32.713Z,180
2017-09-04T12:38:54.234Z,195
2017-09-04T12:40:16.407Z,200
2017-09-04T12:41:38.910Z,180
2017-09-04T12:43:00.834Z,180
2017-09-04T12:44:22.994Z,200
2017-09-04T12:45:45.169Z,190
2017-09-04T12:47:07.175Z,180
2017-09-04T12:48:29.595Z,180
2017-09-04T12:49:51.793Z,170
2017-09-04T12:51:13.973Z,165
2017-09-04T12:52:36.442Z,165
2017-09-04T12:53:58.642Z,175
2017-09-04T12:55:20.583Z,180
2017-09-04T12:56:42.742Z,180
2017-09-04T12:58:04.905Z,175
2017-09-04T12:59:27.737Z,170
2017-09-04T13:00:49.620Z,170
2017-09-04T13:02:11.779Z,170
2017-09-04T13:03:33.609Z,175
2017-09-04T13:04:56.350Z,170
2017-09-04T13:06:18.926Z,180
2017-09-04T13:07:40.775Z,180
2017-09-04T13:09:02.608Z,190
2017-09-04T13:10:25.333Z,190
2017-09-04T13:11:47.492Z,180
2017-09-04T13:13:09.655Z,175
2017-09-04T13:14:32.152Z,175
2017-09-04T13:15:54.674Z,180
2017-09-04T13:17:17.162Z,180
2017-09-04T13:18:39.336Z,165
2017-09-04T13:20:01.213Z,165
2017-09-04T13:21:23.946Z,165
2017-09-04T13:22:46.163Z,155
2017-09-04T13:24:08.012Z,150
2017-09-04T13:25:29.881Z,155
2017-09-04T13:26:52.013Z,165
2017-09-04T13:28:14.201Z,180
2017-09-04T13:29:36.372Z,170
2017-09-04T13:30:58.862Z,155
2017-09-04T13:32:21.043Z,150
2017-09-04T13:33:43.524Z,145
2017-09-04T13:35:05.428Z,145
2017-09-04T13:36:27.624Z,150
2017-09-04T13:37:50.103Z,150
2017-09-04T13:39:12.282Z,155
2017-09-04T13:40:33.479Z,155
2017-09-04T13:41:55.954Z,155
2017-09-04T13:43:18.784Z,165
2017-09-04T13:44:40.633Z,170
2017-09-04T13:46:02.619Z,175
2017-09-04T13:47:24.783Z,180
2017-09-04T13:48:46.563Z,180
2017-09-04T13:50:08.402Z,185
2017-09-04T13:51:29.910Z,185
2017-09-04T13:52:52.052Z,185
2017-09-04T13:54:14.862Z,175
2017-09-04T13:55:36.734Z,185
2017-09-04T13:56:58.564Z,175
2017-09-04T13:58:20.832Z,175
2017-09-04T13:59:43.424Z,185
2017-09-04T14:01:05.304Z,190
2017-09-04T14:02:27.805Z,185
2017-09-04T14:03:49.341Z,185
2017-09-04T14:05:12.083Z,185
2017-09-04T14:06:34.559Z,185
2017-09-04T14:07:56.405Z,190
2017-09-04T14:09:18.924Z,195
2017-09-04T14:10:41.472Z,175
2017-09-04T14:12:03.414Z,170
2017-09-04T14:13:25.677Z,170
2017-09-04T14:14:47.831Z,165
2017-09-04T14:16:10.352Z,165
2017-09-04T14:17:32.543Z,175
2017-09-04T14:18:54.748Z,170
2017-09-04T14:20:16.590Z,170
2017-09-04T14:21:38.984Z,165
2017-09-04T14:23:01.175Z,170
2017-09-04T14:24:23.704Z,175
2017-09-04T14:25:45.304Z,190
2017-09-04T14:27:07.742Z,205
2017-09-04T14:28:30.233Z,215
2017-09-04T14:29:52.412Z,205
2017-09-04T14:31:14.920Z,210
2017-09-04T14:32:36.705Z,175
2017-09-04T14:33:58.552Z,170
2017-09-04T14:35:20.502Z,160
2017-09-04T14:36:43.095Z,160
2017-09-04T14:38:05.942Z,160
2017-09-04T14:39:27.785Z,155
2017-09-04T14:40:49.931Z,155
2017-09-04T14:42:12.107Z,135
2017-09-04T14:43:34.784Z,135
2017-09-04T14:44:56.978Z,155
2017-09-04T14:46:19.262Z,175
2017-09-04T14:47:41.844Z,195
2017-09-04T14:49:04.456Z,180
2017-09-04T14:50:26.715Z,175
2017-09-04T14:51:49.255Z,165
2017-09-04T14:53:11.744Z,165
2017-09-04T14:54:34.582Z,160
2017-09-04T14:55:56.524Z,155
2017-09-04T14:57:19.040Z,155
2017-09-04T14:58:41.523Z,155
2017-09-04T15:00:06.281Z,180
2017-09-04T15:01:28.918Z,180
2017-09-04T15:02:51.402Z,185
2017-09-04T15:04:13.910Z,195
2017-09-04T15:05:35.885Z,190
2017-09-04T15:06:58.425Z,170
2017-09-04T15:08:20.283Z,160
2017-09-04T15:09:42.506Z,160
2017-09-04T15:11:05.030Z,160
2017-09-04T15:12:27.504Z,155
2017-09-04T15:13:49.685Z,145
2017-09-04T15:15:11.214Z,145
2017-09-04T15:16:33.637Z,150
2017-09-04T15:17:55.834Z,145
2017-09-04T15:19:17.822Z,145
2017-09-04T15:20:39.724Z,150
2017-09-04T15:22:02.387Z,150
2017-09-04T15:23:24.234Z,150
2017-09-04T15:24:46.734Z,150
2017-09-04T15:26:08.624Z,150
2017-09-04T15:27:31.256Z,150
2017-09-04T15:28:53.424Z,150
2017-09-04T15:30:15.923Z,150
2017-09-04T15:31:37.794Z,150
2017-09-04T15:33:00.462Z,160
2017-09-04T15:34:22.962Z,155
2017-09-04T15:35:45.486Z,150
2017-09-04T15:37:07.684Z,145
2017-09-04T15:38:30.543Z,145
2017-09-04T15:39:52.723Z,145
2017-09-04T15:41:14.923Z,150
2017-09-04T15:42:36.772Z,150
2017-09-04T15:43:58.970Z,145
2017-09-04T15:45:21.141Z,140
2017-09-04T15:46:43.305Z,140
2017-09-04T15:48:05.749Z,140
2017-09-04T15:49:27.955Z,140
2017-09-04T15:50:50.535Z,145
2017-09-04T15:52:13.032Z,145
2017-09-04T15:53:35.323Z,145
2017-09-04T15:54:57.444Z,145
2017-09-04T15:56:20.083Z,140
2017-09-04T15:57:42.632Z,135
2017-09-04T15:59:05.117Z,140
2017-09-04T16:00:27.553Z,135
2017-09-04T16:01:49.826Z,130
2017-09-04T16:03:12.336Z,130
2017-09-04T16:04:34.576Z,130
2017-09-04T16:05:57.422Z,130
2017-09-04T16:07:19.910Z,130
2017-09-04T16:08:42.111Z,125
2017-09-04T16:10:04.611Z,125
2017-09-04T16:11:26.822Z,130
2017-09-04T16:12:49.346Z,130
2017-09-04T16:14:11.843Z,130
2017-09-04T16:15:34.412Z,130
2017-09-04T16:16:56.843Z,125
2017-09-04T16:18:19.034Z,130
2017-09-04T16:19:41.220Z,125
2017-09-04T16:21:03.394Z,130
2017-09-04T16:22:25.871Z,130
2017-09-04T16:23:48.058Z,125
2017-09-04T16:25:10.284Z,125
2017-09-04T16:26:32.464Z,125
2017-09-04T16:27:55.378Z,115
2017-09-04T16:29:16.937Z,110
2017-09-04T16:30:39.164Z,105
2017-09-04T16:32:01.723Z,100
2017-09-04T16:33:24.256Z,100
2017-09-04T16:34:46.452Z,100
2017-09-04T16:36:08.962Z,100
2017-09-04T16:37:30.467Z,100
2017-09-04T16:38:52.893Z,100
2017-09-04T16:40:15.386Z,95
2017-09-04T16:41:37.887Z,95
2017-09-04T16:43:00.167Z,100
2017-09-04T16:44:22.404Z,90
2017-09-04T16:45:43.942Z,90
2017-09-04T16:47:05.772Z,90
2017-09-04T16:48:27.314Z,90
2017-09-04T16:49:50.159Z,85
2017-09-04T16:51:12.323Z,85
2017-09-04T16:52:34.634Z,85
2017-09-04T16:53:56.925Z,80
2017-09-04T16:55:19.890Z,80
2017-09-04T16:56:42.613Z,80
2017-09-04T16:58:04.807Z,80
2017-09-04T16:59:27.454Z,75
2017-09-04T17:00:50.381Z,75
2017-09-04T17:02:12.397Z,75
2017-09-04T17:03:35.404Z,70
2017-09-04T17:04:57.717Z,70
2017-09-04T17:06:20.579Z,65
2017-09-04T17:07:42.762Z,65
2017-09-04T17:09:04.746Z,65
2017-09-04T17:10:26.928Z,65
2017-09-04T17:11:49.119Z,65
2017-09-04T17:13:11.309Z,65
2017-09-04T17:14:33.828Z,60
2017-09-04T17:15:56.014Z,60
2017-09-04T17:17:17.977Z,55
2017-09-04T17:18:40.479Z,50
2017-09-04T17:20:02.640Z,50
2017-09-04T17:21:24.820Z,45
2017-09-04T17:22:47.013Z,45
2017-09-04T17:24:09.514Z,40
2017-09-04T17:25:32.046Z,35
2017-09-04T17:26:54.551Z,35
2017-09-04T17:28:17.354Z,35
2017-09-04T17:29:39.534Z,35
2017-09-04T17:31:02.036Z,35
2017-09-04T17:32:23.873Z,30
2017-09-04T17:33:46.116Z,30
2017-09-04T17:35:08.294Z,30
2017-09-04T17:36:30.151Z,25
2017-09-04T17:37:52.007Z,25
2017-09-04T17:39:14.528Z,25
2017-09-04T17:40:36.402Z,20
2017-09-04T17:41:58.925Z,20
2017-09-04T17:43:21.531Z,20
2017-09-04T17:44:43.723Z,20
2017-09-04T17:46:05.585Z,20
2017-09-04T17:47:27.427Z,15
2017-09-04T17:48:49.912Z,15
2017-09-04T17:50:12.761Z,15
2017-09-04T17:51:35.083Z,15
2017-09-04T17:52:57.259Z,15
2017-09-04T17:54:18.807Z,10
2017-09-04T17:55:41.354Z,10
2017-09-04T17:57:03.904Z,10
2017-09-04T17:58:26.449Z,10
2017-09-04T17:59:48.715Z,10
2017-09-04T18:01:11.141Z,5
2017-09-04T18:02:33.119Z,5
2017-09-04T18:03:55.007Z,5
2017-09-04T18:05:17.171Z,5
2017-09-04T18:06:39.984Z,5
2017-09-04T18:08:02.166Z,5
2017-09-04T18:09:24.384Z,5
2017-09-04T18:10:46.950Z,0
2017-09-04T18:12:09.485Z,0
2017-09-04T18:13:31.358Z,0
2017-09-04T18:14:53.547Z,0
2017-09-04T18:16:15.763Z,0
2017-09-04T18:17:38.008Z,0
2017-09-04T18:19:00.213Z,0
2017-09-04T18:20:22.694Z,0
2017-09-04T18:21:44.854Z,0
2017-09-04T18:23:07.323Z,0
2017-09-04T18:24:29.593Z,0
2017-09-04T18:25:51.263Z,0
2017-09-04T18:27:13.491Z,0
2017-09-04T18:28:36.233Z,0
2017-09-04T18:29:58.720Z,0
2017-09-04T18:31:21.245Z,0
2017-09-04T18:32:43.114Z,0
2017-09-04T18:34:05.964Z,0
2017-09-04T18:35:28.469Z,0
2017-09-04T18:36:50.972Z,0
2017-09-04T18:38:13.143Z,0
2017-09-04T18:39:35.698Z,0
2017-09-04T18:40:57.886Z,0
2017-09-04T18:42:20.396Z,0
2017-09-04T18:43:42.899Z,0
2017-09-04T18:45:05.464Z,0
2017-09-04T18:46:27.993Z,0
2017-09-04T18:47:50.244Z,0
2017-09-04T18:49:12.428Z,0
2017-09-04T18:50:34.659Z,0
2017-09-04T18:51:57.183Z,0
2017-09-04T18:53:19.467Z,0
2017-09-04T18:54:41.651Z,0
2017-09-04T18:56:04.488Z,0
2017-09-04T18:57:26.983Z,0
2017-09-04T18:58:49.182Z,0
2017-09-04T19:00:11.471Z,0
2017-09-04T19:01:33.906Z,0
2017-09-04T19:02:56.395Z,0
2017-09-04T19:04:18.317Z,0
2017-09-04T19:05:40.819Z,0
2017-09-04T19:07:02.274Z,0
2017-09-04T19:08:24.537Z,0
2017-09-04T19:09:46.833Z,0
2017-09-04T19:11:09.323Z,0
2017-09-04T19:12:31.834Z,0
2017-09-04T19:13:54.344Z,0
2017-09-04T19:15:16.826Z,0
2017-09-04T19:16:39.115Z,0
2017-09-04T19:18:01.991Z,0
2017-09-04T19:19:24.508Z,0
2017-09-04T19:20:46.373Z,0